This is the latest recevied weather packets stored in our database for station/object KN6KDD. If no packets are shown the sender has not sent any weather packets the latest 1 day(s).
| Time | Temp. | Humidity | Pressure | Rain* | Wind** | Luminosity | Snow |
|---|---|---|---|---|---|---|---|
| 1778015455 | 15.56° C | 80% | 1355.3 hPa | 0 mm | 0.89 m/s, 286° | 297 W/m² | - |
| 1778015151 | 15.56° C | 81% | 1355.3 hPa | 0 mm | 2.24 m/s, 344° | 303 W/m² | - |
| 1778014849 | 15° C | 80% | 1355.5 hPa | 0 mm | 0.89 m/s, 334° | 335 W/m² | - |
| 1778014547 | 15° C | 81% | 1355.3 hPa | 0 mm | 2.24 m/s, 287° | 440 W/m² | - |
| 1778014244 | 15° C | 79% | 1355.6 hPa | 0 mm | 0.89 m/s, 5° | 462 W/m² | - |
| 1778013941 | 15° C | 83% | 1355.5 hPa | 0 mm | 0 m/s | 337 W/m² | - |
| 1778013638 | 14.44° C | 83% | 1355.6 hPa | 0 mm | 0.89 m/s, 278° | 243 W/m² | - |
| 1778013335 | 14.44° C | 85% | 1355.3 hPa | 0 mm | 0.89 m/s, 342° | 205 W/m² | - |
| 1778013032 | 14.44° C | 85% | 1355.5 hPa | 0 mm | 1.34 m/s, 300° | 214 W/m² | - |
| 1778012728 | 14.44° C | 85% | 1355.6 hPa | 0 mm | 0.89 m/s, 331° | 202 W/m² | - |
| 1778012424 | 14.44° C | 85% | 1355.6 hPa | 0 mm | 1.79 m/s, 303° | 194 W/m² | - |
| 1778012121 | 14.44° C | 84% | 1355.5 hPa | 0 mm | 2.68 m/s, 302° | 246 W/m² | - |
| 1778011819 | 14.44° C | 85% | 1355.6 hPa | 0 mm | 0.89 m/s, 294° | 253 W/m² | - |
| 1778011517 | 14.44° C | 84% | 1355.6 hPa | 0 mm | 2.24 m/s, 311° | 261 W/m² | - |
| 1778011213 | 15° C | 85% | 1355.6 hPa | 0 mm | 1.34 m/s, 320° | 306 W/m² | - |
| 1778010909 | 15° C | 86% | 1355.6 hPa | 0 mm | 1.79 m/s, 328° | 302 W/m² | - |
| 1778010607 | 14.44° C | 84% | 1355.5 hPa | 0 mm | 2.68 m/s, 290° | 294 W/m² | - |
| 1778010304 | 14.44° C | 84% | 1355.5 hPa | 0 mm | 1.79 m/s, 292° | 255 W/m² | - |
| 1778010004 | 14.44° C | 85% | 1355.3 hPa | 0 mm | 0.89 m/s, 293° | 237 W/m² | - |
| 1778009702 | 14.44° C | 84% | 1355.6 hPa | 0 mm | 0.89 m/s, 2° | 235 W/m² | - |
| 1778009399 | 14.44° C | 86% | 1355.3 hPa | 0 mm | 0.89 m/s, 303° | 255 W/m² | - |
| 1778009098 | 13.89° C | 86% | 1355.3 hPa | 0 mm | 0.45 m/s, 3° | 207 W/m² | - |
| 1778008794 | 13.89° C | 86% | 1355.5 hPa | 0 mm | 1.34 m/s, 314° | 192 W/m² | - |
| 1778008493 | 14.44° C | 84% | 1355.5 hPa | 0 mm | 1.34 m/s, 305° | 201 W/m² | - |
| 1778008190 | 14.44° C | 84% | 1355.5 hPa | 0 mm | 1.79 m/s, 258° | 273 W/m² | - |
* Rain latest hour (hover to see other rain measurements)
** Current wind speed in m/s (hover to see current wind gust speed)